sensor_id;sensor_type;location;lat;lon;timestamp;P1;durP1;ratioP1;P2;durP2;ratioP2
35969;SDS011;22448;51.298;6.430;2023-04-01T00:01:28;11.20;;;2.20;;
35969;SDS011;22448;51.298;6.430;2023-04-01T00:03:55;8.07;;;1.73;;
35969;SDS011;22448;51.298;6.430;2023-04-01T00:06:23;9.90;;;2.03;;
35969;SDS011;22448;51.298;6.430;2023-04-01T00:08:50;10.38;;;1.98;;
35969;SDS011;22448;51.298;6.430;2023-04-01T00:11:17;4.05;;;1.50;;
35969;SDS011;22448;51.298;6.430;2023-04-01T00:13:46;8.95;;;2.00;;
35969;SDS011;22448;51.298;6.430;2023-04-01T00:16:14;6.60;;;1.65;;
35969;SDS011;22448;51.298;6.430;2023-04-01T00:18:44;5.65;;;1.48;;
35969;SDS011;22448;51.298;6.430;2023-04-01T00:21:14;5.70;;;1.70;;
35969;SDS011;22448;51.298;6.430;2023-04-01T00:23:42;6.20;;;1.63;;
35969;SDS011;22448;51.298;6.430;2023-04-01T00:26:10;4.88;;;1.20;;
35969;SDS011;22448;51.298;6.430;2023-04-01T00:28:38;6.43;;;1.23;;
35969;SDS011;22448;51.298;6.430;2023-04-01T00:31:06;4.97;;;1.15;;
35969;SDS011;22448;51.298;6.430;2023-04-01T00:33:34;7.28;;;1.60;;
35969;SDS011;22448;51.298;6.430;2023-04-01T00:36:20;8.57;;;1.77;;
35969;SDS011;22448;51.298;6.430;2023-04-01T00:38:49;7.10;;;1.23;;
35969;SDS011;22448;51.298;6.430;2023-04-01T00:41:17;6.60;;;1.42;;
35969;SDS011;22448;51.298;6.430;2023-04-01T00:43:46;4.75;;;1.33;;
35969;SDS011;22448;51.298;6.430;2023-04-01T00:46:15;7.18;;;1.67;;
35969;SDS011;22448;51.298;6.430;2023-04-01T00:48:50;7.95;;;1.60;;
35969;SDS011;22448;51.298;6.430;2023-04-01T00:51:21;5.47;;;1.52;;
35969;SDS011;22448;51.298;6.430;2023-04-01T00:53:51;5.78;;;1.75;;
35969;SDS011;22448;51.298;6.430;2023-04-01T00:56:21;8.80;;;1.60;;
35969;SDS011;22448;51.298;6.430;2023-04-01T01:01:25;5.68;;;1.60;;
35969;SDS011;22448;51.298;6.430;2023-04-01T01:03:54;5.50;;;1.60;;
35969;SDS011;22448;51.298;6.430;2023-04-01T01:14:55;6.88;;;1.30;;
35969;SDS011;22448;51.298;6.430;2023-04-01T01:31:37;3.53;;;1.35;;
35969;SDS011;22448;51.298;6.430;2023-04-01T01:37:34;5.15;;;1.30;;
35969;SDS011;22448;51.298;6.430;2023-04-01T01:40:04;5.38;;;1.40;;
35969;SDS011;22448;51.298;6.430;2023-04-01T01:42:35;3.72;;;0.93;;
35969;SDS011;22448;51.298;6.430;2023-04-01T01:45:06;5.20;;;1.30;;
35969;SDS011;22448;51.298;6.430;2023-04-01T01:47:35;2.88;;;1.17;;
35969;SDS011;22448;51.298;6.430;2023-04-01T01:50:04;6.45;;;1.30;;
35969;SDS011;22448;51.298;6.430;2023-04-01T01:52:32;7.10;;;1.50;;
35969;SDS011;22448;51.298;6.430;2023-04-01T01:54:59;5.78;;;1.13;;
35969;SDS011;22448;51.298;6.430;2023-04-01T01:57:36;5.50;;;1.20;;
35969;SDS011;22448;51.298;6.430;2023-04-01T02:00:12;5.82;;;1.50;;
35969;SDS011;22448;51.298;6.430;2023-04-01T02:02:42;7.95;;;1.13;;
35969;SDS011;22448;51.298;6.430;2023-04-01T02:05:15;6.93;;;1.58;;
35969;SDS011;22448;51.298;6.430;2023-04-01T02:10:14;5.47;;;1.48;;
35969;SDS011;22448;51.298;6.430;2023-04-01T02:12:42;5.75;;;1.52;;
35969;SDS011;22448;51.298;6.430;2023-04-01T02:15:13;7.53;;;1.92;;
35969;SDS011;22448;51.298;6.430;2023-04-01T02:17:45;5.70;;;1.77;;
35969;SDS011;22448;51.298;6.430;2023-04-01T02:20:16;4.23;;;1.60;;
35969;SDS011;22448;51.298;6.430;2023-04-01T02:22:49;6.88;;;1.88;;
35969;SDS011;22448;51.298;6.430;2023-04-01T02:25:20;5.03;;;1.58;;
35969;SDS011;22448;51.298;6.430;2023-04-01T02:27:51;8.85;;;2.13;;
35969;SDS011;22448;51.298;6.430;2023-04-01T02:30:19;4.43;;;1.75;;
35969;SDS011;22448;51.298;6.430;2023-04-01T02:32:47;6.57;;;1.63;;
35969;SDS011;22448;51.298;6.430;2023-04-01T02:35:15;5.72;;;1.80;;
35969;SDS011;22448;51.298;6.430;2023-04-01T02:37:43;8.85;;;1.80;;
35969;SDS011;22448;51.298;6.430;2023-04-01T02:40:15;3.45;;;1.23;;
35969;SDS011;22448;51.298;6.430;2023-04-01T02:42:43;5.95;;;1.73;;
35969;SDS011;22448;51.298;6.430;2023-04-01T02:45:11;5.47;;;1.63;;
35969;SDS011;22448;51.298;6.430;2023-04-01T02:47:39;3.17;;;1.35;;
35969;SDS011;22448;51.298;6.430;2023-04-01T02:50:07;4.95;;;1.60;;
35969;SDS011;22448;51.298;6.430;2023-04-01T02:52:35;5.18;;;1.60;;
35969;SDS011;22448;51.298;6.430;2023-04-01T02:55:02;3.33;;;1.50;;
35969;SDS011;22448;51.298;6.430;2023-04-01T02:57:30;3.47;;;1.35;;
35969;SDS011;22448;51.298;6.430;2023-04-01T02:59:57;4.18;;;1.75;;
35969;SDS011;22448;51.298;6.430;2023-04-01T03:02:24;5.45;;;1.60;;
35969;SDS011;22448;51.298;6.430;2023-04-01T03:04:52;2.92;;;1.27;;
35969;SDS011;22448;51.298;6.430;2023-04-01T03:07:19;2.15;;;1.33;;
35969;SDS011;22448;51.298;6.430;2023-04-01T03:09:47;3.67;;;1.65;;
35969;SDS011;22448;51.298;6.430;2023-04-01T03:12:14;4.72;;;1.45;;
35969;SDS011;22448;51.298;6.430;2023-04-01T03:14:48;5.40;;;1.90;;
35969;SDS011;22448;51.298;6.430;2023-04-01T03:17:16;6.03;;;1.73;;
35969;SDS011;22448;51.298;6.430;2023-04-01T03:19:43;5.78;;;1.88;;
35969;SDS011;22448;51.298;6.430;2023-04-01T03:22:10;5.63;;;1.80;;
35969;SDS011;22448;51.298;6.430;2023-04-01T03:24:38;4.93;;;1.60;;
35969;SDS011;22448;51.298;6.430;2023-04-01T03:27:05;5.57;;;1.58;;
35969;SDS011;22448;51.298;6.430;2023-04-01T03:29:32;4.82;;;1.50;;
35969;SDS011;22448;51.298;6.430;2023-04-01T03:31:59;4.85;;;1.65;;
35969;SDS011;22448;51.298;6.430;2023-04-01T03:34:26;4.93;;;1.80;;
35969;SDS011;22448;51.298;6.430;2023-04-01T03:36:53;7.20;;;1.40;;
35969;SDS011;22448;51.298;6.430;2023-04-01T03:39:20;3.35;;;1.48;;
35969;SDS011;22448;51.298;6.430;2023-04-01T03:41:49;2.25;;;1.10;;
35969;SDS011;22448;51.298;6.430;2023-04-01T03:44:16;2.17;;;1.23;;
35969;SDS011;22448;51.298;6.430;2023-04-01T03:46:47;4.18;;;1.33;;
35969;SDS011;22448;51.298;6.430;2023-04-01T03:49:14;2.08;;;1.25;;
35969;SDS011;22448;51.298;6.430;2023-04-01T03:51:42;4.97;;;1.60;;
35969;SDS011;22448;51.298;6.430;2023-04-01T03:54:10;1.45;;;1.08;;
35969;SDS011;22448;51.298;6.430;2023-04-01T03:56:37;4.93;;;1.38;;
35969;SDS011;22448;51.298;6.430;2023-04-01T03:59:05;1.83;;;1.27;;
35969;SDS011;22448;51.298;6.430;2023-04-01T04:01:33;3.00;;;1.42;;
35969;SDS011;22448;51.298;6.430;2023-04-01T04:04:01;4.93;;;1.65;;
35969;SDS011;22448;51.298;6.430;2023-04-01T04:06:29;4.65;;;1.52;;
35969;SDS011;22448;51.298;6.430;2023-04-01T04:08:56;3.13;;;1.38;;
35969;SDS011;22448;51.298;6.430;2023-04-01T04:11:24;5.82;;;1.80;;
35969;SDS011;22448;51.298;6.430;2023-04-01T04:13:52;3.97;;;1.95;;
35969;SDS011;22448;51.298;6.430;2023-04-01T04:16:21;2.95;;;1.77;;
35969;SDS011;22448;51.298;6.430;2023-04-01T04:18:55;5.82;;;2.60;;
35969;SDS011;22448;51.298;6.430;2023-04-01T04:21:22;5.53;;;2.60;;
35969;SDS011;22448;51.298;6.430;2023-04-01T04:23:49;5.85;;;2.22;;
35969;SDS011;22448;51.298;6.430;2023-04-01T04:26:18;3.42;;;2.10;;
35969;SDS011;22448;51.298;6.430;2023-04-01T04:28:54;3.03;;;2.00;;
35969;SDS011;22448;51.298;6.430;2023-04-01T04:31:22;2.55;;;1.80;;
35969;SDS011;22448;51.298;6.430;2023-04-01T04:33:52;4.82;;;2.00;;
35969;SDS011;22448;51.298;6.430;2023-04-01T04:36:20;4.97;;;1.88;;
35969;SDS011;22448;51.298;6.430;2023-04-01T04:38:49;2.38;;;2.00;;
35969;SDS011;22448;51.298;6.430;2023-04-01T04:41:17;5.68;;;2.72;;
35969;SDS011;22448;51.298;6.430;2023-04-01T04:43:51;4.72;;;3.17;;
35969;SDS011;22448;51.298;6.430;2023-04-01T04:46:23;8.88;;;2.97;;
35969;SDS011;22448;51.298;6.430;2023-04-01T04:48:57;5.50;;;3.33;;
35969;SDS011;22448;51.298;6.430;2023-04-01T04:51:25;7.38;;;3.85;;
35969;SDS011;22448;51.298;6.430;2023-04-01T04:53:52;4.95;;;3.88;;
35969;SDS011;22448;51.298;6.430;2023-04-01T04:56:28;5.30;;;4.68;;
35969;SDS011;22448;51.298;6.430;2023-04-01T04:59:02;6.68;;;4.70;;
35969;SDS011;22448;51.298;6.430;2023-04-01T05:01:39;9.15;;;4.50;;
35969;SDS011;22448;51.298;6.430;2023-04-01T05:04:07;6.85;;;4.35;;
35969;SDS011;22448;51.298;6.430;2023-04-01T05:06:34;6.32;;;5.07;;
35969;SDS011;22448;51.298;6.430;2023-04-01T05:09:01;8.05;;;6.85;;
35969;SDS011;22448;51.298;6.430;2023-04-01T05:11:28;10.23;;;7.03;;
35969;SDS011;22448;51.298;6.430;2023-04-01T05:13:56;8.38;;;6.35;;
35969;SDS011;22448;51.298;6.430;2023-04-01T05:16:23;11.65;;;6.88;;
35969;SDS011;22448;51.298;6.430;2023-04-01T05:18:50;10.45;;;7.15;;
35969;SDS011;22448;51.298;6.430;2023-04-01T05:21:17;10.38;;;6.95;;
35969;SDS011;22448;51.298;6.430;2023-04-01T05:23:45;14.00;;;7.13;;
35969;SDS011;22448;51.298;6.430;2023-04-01T05:26:12;12.20;;;7.85;;
35969;SDS011;22448;51.298;6.430;2023-04-01T05:28:41;10.93;;;8.35;;
35969;SDS011;22448;51.298;6.430;2023-04-01T05:31:09;11.82;;;8.23;;
35969;SDS011;22448;51.298;6.430;2023-04-01T05:33:38;14.38;;;9.45;;
35969;SDS011;22448;51.298;6.430;2023-04-01T05:36:12;14.00;;;8.75;;
35969;SDS011;22448;51.298;6.430;2023-04-01T05:38:41;11.23;;;8.38;;
35969;SDS011;22448;51.298;6.430;2023-04-01T05:41:10;15.85;;;8.95;;
35969;SDS011;22448;51.298;6.430;2023-04-01T05:43:41;10.70;;;8.52;;
35969;SDS011;22448;51.298;6.430;2023-04-01T05:46:27;13.32;;;9.10;;
35969;SDS011;22448;51.298;6.430;2023-04-01T05:49:02;12.40;;;10.05;;
35969;SDS011;22448;51.298;6.430;2023-04-01T05:51:29;12.95;;;9.73;;
35969;SDS011;22448;51.298;6.430;2023-04-01T05:53:56;17.45;;;10.95;;
35969;SDS011;22448;51.298;6.430;2023-04-01T05:56:23;15.88;;;10.68;;
35969;SDS011;22448;51.298;6.430;2023-04-01T05:58:51;17.27;;;10.32;;
35969;SDS011;22448;51.298;6.430;2023-04-01T06:01:21;16.27;;;10.25;;
35969;SDS011;22448;51.298;6.430;2023-04-01T06:03:48;20.10;;;11.48;;
35969;SDS011;22448;51.298;6.430;2023-04-01T06:06:18;16.35;;;11.95;;
35969;SDS011;22448;51.298;6.430;2023-04-01T06:08:51;13.90;;;11.35;;
35969;SDS011;22448;51.298;6.430;2023-04-01T06:11:25;15.65;;;12.07;;
35969;SDS011;22448;51.298;6.430;2023-04-01T06:14:11;14.77;;;11.27;;
35969;SDS011;22448;51.298;6.430;2023-04-01T06:17:07;17.60;;;11.10;;
35969;SDS011;22448;51.298;6.430;2023-04-01T06:31:05;9.13;;;7.95;;
35969;SDS011;22448;51.298;6.430;2023-04-01T06:34:25;9.02;;;7.75;;
35969;SDS011;22448;51.298;6.430;2023-04-01T06:37:19;11.27;;;7.55;;
35969;SDS011;22448;51.298;6.430;2023-04-01T06:46:17;7.13;;;5.90;;
35969;SDS011;22448;51.298;6.430;2023-04-01T06:52:33;6.13;;;5.57;;
35969;SDS011;22448;51.298;6.430;2023-04-01T06:58:25;7.70;;;5.30;;
35969;SDS011;22448;51.298;6.430;2023-04-01T07:01:04;6.45;;;5.03;;
35969;SDS011;22448;51.298;6.430;2023-04-01T07:03:36;6.35;;;5.47;;
35969;SDS011;22448;51.298;6.430;2023-04-01T07:06:13;6.35;;;5.47;;
35969;SDS011;22448;51.298;6.430;2023-04-01T07:09:18;5.60;;;5.10;;
35969;SDS011;22448;51.298;6.430;2023-04-01T07:12:28;5.93;;;5.32;;
35969;SDS011;22448;51.298;6.430;2023-04-01T07:15:20;5.30;;;4.57;;
35969;SDS011;22448;51.298;6.430;2023-04-01T07:17:53;5.30;;;4.80;;
35969;SDS011;22448;51.298;6.430;2023-04-01T07:20:26;5.45;;;4.95;;
35969;SDS011;22448;51.298;6.430;2023-04-01T07:22:58;5.40;;;4.88;;
35969;SDS011;22448;51.298;6.430;2023-04-01T07:25:39;6.18;;;5.65;;
35969;SDS011;22448;51.298;6.430;2023-04-01T07:28:33;6.18;;;5.63;;
35969;SDS011;22448;51.298;6.430;2023-04-01T07:36:47;6.88;;;6.22;;
35969;SDS011;22448;51.298;6.430;2023-04-01T07:42:31;8.30;;;7.38;;
35969;SDS011;22448;51.298;6.430;2023-04-01T07:47:59;8.05;;;7.03;;
35969;SDS011;22448;51.298;6.430;2023-04-01T07:56:22;7.55;;;6.00;;
35969;SDS011;22448;51.298;6.430;2023-04-01T08:02:06;7.13;;;6.07;;
35969;SDS011;22448;51.298;6.430;2023-04-01T08:23:15;9.20;;;8.30;;
35969;SDS011;22448;51.298;6.430;2023-04-01T08:26:06;9.68;;;8.75;;
35969;SDS011;22448;51.298;6.430;2023-04-01T08:29:00;11.38;;;9.00;;
35969;SDS011;22448;51.298;6.430;2023-04-01T08:31:37;13.07;;;9.88;;
35969;SDS011;22448;51.298;6.430;2023-04-01T08:34:24;11.15;;;9.93;;
35969;SDS011;22448;51.298;6.430;2023-04-01T08:37:01;12.23;;;10.77;;
35969;SDS011;22448;51.298;6.430;2023-04-01T08:39:51;13.45;;;11.27;;
35969;SDS011;22448;51.298;6.430;2023-04-01T08:53:56;15.50;;;12.40;;
35969;SDS011;22448;51.298;6.430;2023-04-01T08:56:40;14.82;;;11.45;;
35969;SDS011;22448;51.298;6.430;2023-04-01T09:08:38;15.65;;;11.13;;
35969;SDS011;22448;51.298;6.430;2023-04-01T09:11:47;15.95;;;11.40;;
35969;SDS011;22448;51.298;6.430;2023-04-01T09:27:01;22.35;;;14.27;;
35969;SDS011;22448;51.298;6.430;2023-04-01T09:29:23;19.00;;;13.63;;
35969;SDS011;22448;51.298;6.430;2023-04-01T09:37:41;19.20;;;14.88;;
35969;SDS011;22448;51.298;6.430;2023-04-01T09:44:10;22.85;;;16.58;;
35969;SDS011;22448;51.298;6.430;2023-04-01T09:50:15;23.00;;;16.58;;
35969;SDS011;22448;51.298;6.430;2023-04-01T09:52:50;24.70;;;17.85;;
35969;SDS011;22448;51.298;6.430;2023-04-01T10:01:57;22.08;;;16.20;;
35969;SDS011;22448;51.298;6.430;2023-04-01T10:08:02;21.42;;;14.95;;
35969;SDS011;22448;51.298;6.430;2023-04-01T10:19:36;21.17;;;13.77;;
35969;SDS011;22448;51.298;6.430;2023-04-01T10:22:08;17.40;;;13.38;;
35969;SDS011;22448;51.298;6.430;2023-04-01T10:24:58;19.88;;;13.73;;
35969;SDS011;22448;51.298;6.430;2023-04-01T10:34:21;15.60;;;12.48;;
35969;SDS011;22448;51.298;6.430;2023-04-01T10:49:25;18.58;;;14.70;;
35969;SDS011;22448;51.298;6.430;2023-04-01T11:16:09;16.63;;;11.00;;
35969;SDS011;22448;51.298;6.430;2023-04-01T11:33:14;13.13;;;11.43;;
35969;SDS011;22448;51.298;6.430;2023-04-01T11:36:05;17.70;;;11.77;;
35969;SDS011;22448;51.298;6.430;2023-04-01T11:42:03;16.40;;;13.02;;
35969;SDS011;22448;51.298;6.430;2023-04-01T11:50:59;16.52;;;13.57;;
35969;SDS011;22448;51.298;6.430;2023-04-01T11:56:12;19.17;;;14.05;;
35969;SDS011;22448;51.298;6.430;2023-04-01T12:04:58;22.38;;;16.50;;
35969;SDS011;22448;51.298;6.430;2023-04-01T12:10:17;23.80;;;15.07;;
35969;SDS011;22448;51.298;6.430;2023-04-01T12:21:37;17.77;;;14.40;;
35969;SDS011;22448;51.298;6.430;2023-04-01T12:32:29;15.65;;;11.70;;
35969;SDS011;22448;51.298;6.430;2023-04-01T12:35:05;13.73;;;10.85;;
35969;SDS011;22448;51.298;6.430;2023-04-01T12:38:10;12.15;;;9.68;;
35969;SDS011;22448;51.298;6.430;2023-04-01T12:47:37;13.32;;;9.75;;
35969;SDS011;22448;51.298;6.430;2023-04-01T12:52:25;19.65;;;9.32;;
35969;SDS011;22448;51.298;6.430;2023-04-01T12:55:05;13.57;;;8.32;;
35969;SDS011;22448;51.298;6.430;2023-04-01T12:57:52;11.95;;;7.57;;
35969;SDS011;22448;51.298;6.430;2023-04-01T13:00:56;10.60;;;6.93;;
35969;SDS011;22448;51.298;6.430;2023-04-01T13:06:48;14.38;;;7.40;;
35969;SDS011;22448;51.298;6.430;2023-04-01T13:15:13;9.27;;;6.43;;
35969;SDS011;22448;51.298;6.430;2023-04-01T13:20:54;8.23;;;6.65;;
35969;SDS011;22448;51.298;6.430;2023-04-01T13:32:40;10.02;;;7.13;;
35969;SDS011;22448;51.298;6.430;2023-04-01T13:38:32;8.13;;;6.72;;
35969;SDS011;22448;51.298;6.430;2023-04-01T13:41:29;9.00;;;6.97;;
35969;SDS011;22448;51.298;6.430;2023-04-01T13:47:07;9.48;;;7.13;;
35969;SDS011;22448;51.298;6.430;2023-04-01T13:50:04;9.70;;;7.10;;
35969;SDS011;22448;51.298;6.430;2023-04-01T14:09:11;8.65;;;4.80;;
35969;SDS011;22448;51.298;6.430;2023-04-01T14:14:44;7.20;;;5.25;;
35969;SDS011;22448;51.298;6.430;2023-04-01T14:20:27;6.80;;;4.25;;
35969;SDS011;22448;51.298;6.430;2023-04-01T14:35:18;10.60;;;8.55;;
35969;SDS011;22448;51.298;6.430;2023-04-01T14:46:14;7.15;;;5.75;;
35969;SDS011;22448;51.298;6.430;2023-04-01T14:49:19;7.47;;;6.20;;
35969;SDS011;22448;51.298;6.430;2023-04-01T14:51:57;7.32;;;4.72;;
35969;SDS011;22448;51.298;6.430;2023-04-01T14:54:51;5.90;;;5.30;;
35969;SDS011;22448;51.298;6.430;2023-04-01T14:57:29;5.25;;;4.75;;
35969;SDS011;22448;51.298;6.430;2023-04-01T15:10:49;6.05;;;4.28;;
35969;SDS011;22448;51.298;6.430;2023-04-01T15:16:16;5.75;;;5.15;;
35969;SDS011;22448;51.298;6.430;2023-04-01T15:18:59;5.75;;;5.13;;
35969;SDS011;22448;51.298;6.430;2023-04-01T15:29:35;5.07;;;4.28;;
35969;SDS011;22448;51.298;6.430;2023-04-01T15:32:19;5.25;;;4.32;;
35969;SDS011;22448;51.298;6.430;2023-04-01T15:35:15;10.70;;;5.05;;
35969;SDS011;22448;51.298;6.430;2023-04-01T15:40:57;4.07;;;3.63;;
35969;SDS011;22448;51.298;6.430;2023-04-01T15:49:03;4.50;;;4.03;;
35969;SDS011;22448;51.298;6.430;2023-04-01T15:51:38;4.57;;;3.72;;
35969;SDS011;22448;51.298;6.430;2023-04-01T16:09:13;9.68;;;7.40;;
35969;SDS011;22448;51.298;6.430;2023-04-01T16:19:49;7.03;;;5.65;;
35969;SDS011;22448;51.298;6.430;2023-04-01T16:25:19;10.57;;;7.15;;
35969;SDS011;22448;51.298;6.430;2023-04-01T16:28:16;9.40;;;5.85;;
35969;SDS011;22448;51.298;6.430;2023-04-01T16:36:09;8.15;;;6.97;;
35969;SDS011;22448;51.298;6.430;2023-04-01T16:38:52;13.10;;;7.85;;
35969;SDS011;22448;51.298;6.430;2023-04-01T16:41:41;8.30;;;7.13;;
35969;SDS011;22448;51.298;6.430;2023-04-01T16:44:25;8.93;;;7.85;;
35969;SDS011;22448;51.298;6.430;2023-04-01T16:47:05;10.70;;;8.20;;
35969;SDS011;22448;51.298;6.430;2023-04-01T16:49:40;10.18;;;8.32;;
35969;SDS011;22448;51.298;6.430;2023-04-01T16:52:14;9.00;;;8.07;;
35969;SDS011;22448;51.298;6.430;2023-04-01T16:54:47;8.45;;;7.55;;
35969;SDS011;22448;51.298;6.430;2023-04-01T16:57:28;8.57;;;7.53;;
35969;SDS011;22448;51.298;6.430;2023-04-01T17:00:24;7.93;;;7.13;;
35969;SDS011;22448;51.298;6.430;2023-04-01T17:03:20;10.00;;;7.53;;
35969;SDS011;22448;51.298;6.430;2023-04-01T17:06:03;9.50;;;7.82;;
35969;SDS011;22448;51.298;6.430;2023-04-01T17:11:48;9.82;;;8.35;;
35969;SDS011;22448;51.298;6.430;2023-04-01T17:14:25;10.60;;;8.93;;
35969;SDS011;22448;51.298;6.430;2023-04-01T17:17:17;10.38;;;8.18;;
35969;SDS011;22448;51.298;6.430;2023-04-01T17:25:37;10.93;;;8.05;;
35969;SDS011;22448;51.298;6.430;2023-04-01T17:28:09;8.95;;;8.05;;
35969;SDS011;22448;51.298;6.430;2023-04-01T17:36:11;10.98;;;8.20;;
35969;SDS011;22448;51.298;6.430;2023-04-01T17:39:09;10.85;;;7.95;;
35969;SDS011;22448;51.298;6.430;2023-04-01T17:41:52;9.82;;;7.20;;
35969;SDS011;22448;51.298;6.430;2023-04-01T17:50:20;74.32;;;40.20;;
35969;SDS011;22448;51.298;6.430;2023-04-01T17:52:56;30.15;;;17.48;;
35969;SDS011;22448;51.298;6.430;2023-04-01T17:58:10;13.02;;;10.05;;
35969;SDS011;22448;51.298;6.430;2023-04-01T18:15:03;11.50;;;9.73;;
35969;SDS011;22448;51.298;6.430;2023-04-01T18:23:29;10.73;;;8.32;;
35969;SDS011;22448;51.298;6.430;2023-04-01T18:26:28;11.52;;;8.60;;
35969;SDS011;22448;51.298;6.430;2023-04-01T18:28:59;14.80;;;9.77;;
35969;SDS011;22448;51.298;6.430;2023-04-01T18:31:54;13.85;;;9.10;;
35969;SDS011;22448;51.298;6.430;2023-04-01T18:34:40;11.43;;;8.95;;
35969;SDS011;22448;51.298;6.430;2023-04-01T18:45:49;12.10;;;9.18;;
35969;SDS011;22448;51.298;6.430;2023-04-01T18:48:33;12.45;;;10.00;;
35969;SDS011;22448;51.298;6.430;2023-04-01T18:51:25;12.45;;;10.27;;
35969;SDS011;22448;51.298;6.430;2023-04-01T18:54:14;12.02;;;9.93;;
35969;SDS011;22448;51.298;6.430;2023-04-01T18:56:48;11.50;;;9.20;;
35969;SDS011;22448;51.298;6.430;2023-04-01T19:02:25;11.70;;;9.85;;
35969;SDS011;22448;51.298;6.430;2023-04-01T19:05:56;12.57;;;10.43;;
35969;SDS011;22448;51.298;6.430;2023-04-01T19:07:54;13.05;;;11.40;;
35969;SDS011;22448;51.298;6.430;2023-04-01T19:10:44;14.63;;;11.38;;
35969;SDS011;22448;51.298;6.430;2023-04-01T19:13:23;18.02;;;11.25;;
35969;SDS011;22448;51.298;6.430;2023-04-01T19:22:19;13.98;;;11.38;;
35969;SDS011;22448;51.298;6.430;2023-04-01T19:28:34;16.30;;;13.23;;
35969;SDS011;22448;51.298;6.430;2023-04-01T19:30:54;17.33;;;12.70;;
35969;SDS011;22448;51.298;6.430;2023-04-01T19:52:52;19.88;;;15.32;;
35969;SDS011;22448;51.298;6.430;2023-04-01T19:58:54;20.42;;;15.77;;
35969;SDS011;22448;51.298;6.430;2023-04-01T20:01:03;22.08;;;16.70;;
35969;SDS011;22448;51.298;6.430;2023-04-01T20:11:39;19.73;;;15.02;;
35969;SDS011;22448;51.298;6.430;2023-04-01T20:17:24;16.13;;;13.68;;
35969;SDS011;22448;51.298;6.430;2023-04-01T20:20:03;16.13;;;13.80;;
35969;SDS011;22448;51.298;6.430;2023-04-01T20:25:13;12.70;;;11.07;;
35969;SDS011;22448;51.298;6.430;2023-04-01T20:28:00;13.27;;;10.50;;
35969;SDS011;22448;51.298;6.430;2023-04-01T20:30:52;11.85;;;10.18;;
35969;SDS011;22448;51.298;6.430;2023-04-01T20:39:18;8.82;;;7.70;;
35969;SDS011;22448;51.298;6.430;2023-04-01T20:44:54;8.57;;;7.68;;
35969;SDS011;22448;51.298;6.430;2023-04-01T20:47:45;10.65;;;9.50;;
35969;SDS011;22448;51.298;6.430;2023-04-01T20:53:15;13.52;;;11.88;;
35969;SDS011;22448;51.298;6.430;2023-04-01T20:56:01;12.55;;;10.52;;
35969;SDS011;22448;51.298;6.430;2023-04-01T20:58:44;12.05;;;9.73;;
35969;SDS011;22448;51.298;6.430;2023-04-01T21:01:38;10.02;;;8.85;;
35969;SDS011;22448;51.298;6.430;2023-04-01T21:07:33;10.32;;;9.20;;
35969;SDS011;22448;51.298;6.430;2023-04-01T21:10:16;10.32;;;9.30;;
35969;SDS011;22448;51.298;6.430;2023-04-01T21:13:02;7.82;;;7.03;;
35969;SDS011;22448;51.298;6.430;2023-04-01T21:21:37;6.25;;;5.65;;
35969;SDS011;22448;51.298;6.430;2023-04-01T21:30:00;9.52;;;6.50;;
35969;SDS011;22448;51.298;6.430;2023-04-01T21:32:51;6.55;;;5.95;;
35969;SDS011;22448;51.298;6.430;2023-04-01T21:35:28;6.97;;;6.22;;
35969;SDS011;22448;51.298;6.430;2023-04-01T21:41:22;6.35;;;5.75;;
35969;SDS011;22448;51.298;6.430;2023-04-01T21:43:57;7.25;;;6.55;;
35969;SDS011;22448;51.298;6.430;2023-04-01T21:46:50;7.95;;;6.65;;
35969;SDS011;22448;51.298;6.430;2023-04-01T22:01:42;7.05;;;5.50;;
35969;SDS011;22448;51.298;6.430;2023-04-01T22:07:25;6.85;;;5.30;;
35969;SDS011;22448;51.298;6.430;2023-04-01T22:10:21;6.47;;;5.78;;
35969;SDS011;22448;51.298;6.430;2023-04-01T22:13:04;15.48;;;13.15;;
35969;SDS011;22448;51.298;6.430;2023-04-01T22:18:30;22.70;;;17.58;;
35969;SDS011;22448;51.298;6.430;2023-04-01T22:21:05;19.30;;;16.38;;
35969;SDS011;22448;51.298;6.430;2023-04-01T22:23:42;18.75;;;14.35;;
35969;SDS011;22448;51.298;6.430;2023-04-01T22:26:31;16.25;;;13.43;;
35969;SDS011;22448;51.298;6.430;2023-04-01T22:29:07;16.17;;;13.90;;
35969;SDS011;22448;51.298;6.430;2023-04-01T22:31:44;17.67;;;14.27;;
35969;SDS011;22448;51.298;6.430;2023-04-01T22:45:29;18.13;;;13.38;;
35969;SDS011;22448;51.298;6.430;2023-04-01T22:56:52;17.88;;;14.10;;
35969;SDS011;22448;51.298;6.430;2023-04-01T23:00:05;21.50;;;13.50;;
35969;SDS011;22448;51.298;6.430;2023-04-01T23:02:39;19.13;;;13.07;;
35969;SDS011;22448;51.298;6.430;2023-04-01T23:05:10;16.58;;;13.23;;
35969;SDS011;22448;51.298;6.430;2023-04-01T23:07:45;16.13;;;12.40;;
35969;SDS011;22448;51.298;6.430;2023-04-01T23:10:47;18.40;;;11.15;;
35969;SDS011;22448;51.298;6.430;2023-04-01T23:13:22;13.13;;;10.98;;
35969;SDS011;22448;51.298;6.430;2023-04-01T23:15:53;14.10;;;10.18;;
35969;SDS011;22448;51.298;6.430;2023-04-01T23:18:27;12.65;;;10.98;;
35969;SDS011;22448;51.298;6.430;2023-04-01T23:23:50;12.27;;;10.57;;
35969;SDS011;22448;51.298;6.430;2023-04-01T23:26:24;11.40;;;9.77;;
35969;SDS011;22448;51.298;6.430;2023-04-01T23:29:03;9.07;;;6.90;;
35969;SDS011;22448;51.298;6.430;2023-04-01T23:31:38;10.75;;;8.18;;
35969;SDS011;22448;51.298;6.430;2023-04-01T23:36:46;8.82;;;7.82;;
35969;SDS011;22448;51.298;6.430;2023-04-01T23:44:42;8.52;;;6.97;;
35969;SDS011;22448;51.298;6.430;2023-04-01T23:47:12;7.05;;;6.28;;
35969;SDS011;22448;51.298;6.430;2023-04-01T23:49:45;7.25;;;6.53;;
35969;SDS011;22448;51.298;6.430;2023-04-01T23:52:24;9.00;;;7.60;;
35969;SDS011;22448;51.298;6.430;2023-04-01T23:55:03;7.90;;;5.70;;
35969;SDS011;22448;51.298;6.430;2023-04-01T23:57:36;5.93;;;5.32;;
